RUK85 EIDW-EGPH

Flight info

Callsign RUK85
Flight time 0h 44m
Altitude 25000
Route ROTEV3J ROTEV P600 TUNSO
Aircraft B738/M-SDE3FGILRWY/SB1

Departure

Time 2026-05-07 19:31
Airport Dublin Airport (EIDW)

Arrival

Time 2026-05-07 20:15
Airport Edinburgh Airport (EGPH)
Time Latitude Longitude Altitude Speed Heading
2026-05-07 19:10 53.43108 -6.24959 210 ft 0 kts 185°
2026-05-07 19:22 53.43117 -6.24958 210 ft 2 kts 183°
2026-05-07 19:22 53.43133 -6.24956 215 ft 2 kts 185°
2026-05-07 19:23 53.43150 -6.24953 210 ft 2 kts 185°
2026-05-07 19:23 53.43166 -6.24951 210 ft 2 kts 186°
2026-05-07 19:23 53.43183 -6.24948 210 ft 2 kts 166°
2026-05-07 19:23 53.43194 -6.24966 210 ft 2 kts 105°
2026-05-07 19:24 53.43197 -6.24989 212 ft 1 kts 96°
2026-05-07 19:24 53.43197 -6.24992 210 ft 0 kts 95°
2026-05-07 19:25 53.43196 -6.24979 213 ft 3 kts 95°
2026-05-07 19:25 53.43192 -6.24902 210 ft 10 kts 96°
2026-05-07 19:25 53.43184 -6.24769 215 ft 12 kts 96°
2026-05-07 19:26 53.43196 -6.24636 212 ft 12 kts 89°
2026-05-07 19:26 53.43189 -6.24503 210 ft 11 kts 95°
2026-05-07 19:26 53.43230 -6.24413 215 ft 11 kts
2026-05-07 19:26 53.43299 -6.24403 219 ft 9 kts
2026-05-07 19:27 53.43345 -6.24453 218 ft 9 kts 289°
2026-05-07 19:27 53.43365 -6.24543 215 ft 8 kts 317°
2026-05-07 19:27 53.43399 -6.24560 210 ft 2 kts 360°
2026-05-07 19:27 53.43406 -6.24559 215 ft 0 kts
2026-05-07 19:29 53.43419 -6.24557 211 ft 5 kts
2026-05-07 19:29 53.43462 -6.24549 212 ft 6 kts
2026-05-07 19:29 53.43502 -6.24543 218 ft 4 kts
2026-05-07 19:29 53.43522 -6.24568 219 ft 4 kts 288°
2026-05-07 19:30 53.43526 -6.24613 215 ft 4 kts 276°
2026-05-07 19:30 53.43527 -6.24619 216 ft 0 kts 276°
2026-05-07 19:30 53.43531 -6.24688 216 ft 26 kts 275°
2026-05-07 19:30 53.43572 -6.25433 211 ft 100 kts 275°
2026-05-07 19:31 53.43656 -6.26947 230 ft 157 kts 273°
2026-05-07 19:31 53.43774 -6.28796 903 ft 159 kts 275°
2026-05-07 19:31 53.44150 -6.30579 1672 ft 170 kts 296°
2026-05-07 19:31 53.44887 -6.32332 2094 ft 198 kts 308°
2026-05-07 19:32 53.45860 -6.34058 2624 ft 209 kts 310°
2026-05-07 19:32 53.47024 -6.35612 3132 ft 224 kts 339°
2026-05-07 19:32 53.48596 -6.35733 3879 ft 233 kts
2026-05-07 19:32 53.50210 -6.35068 4477 ft 250 kts 16°
2026-05-07 19:33 53.51946 -6.34102 4932 ft 269 kts 17°
2026-05-07 19:33 53.53737 -6.33074 5718 ft 274 kts 17°
2026-05-07 19:33 53.55561 -6.32057 6570 ft 278 kts 17°
2026-05-07 19:33 53.57409 -6.31012 7479 ft 282 kts 17°
2026-05-07 19:34 53.59274 -6.29944 8405 ft 285 kts 18°
2026-05-07 19:34 53.61165 -6.28853 9302 ft 290 kts 17°
2026-05-07 19:34 53.63104 -6.27807 10124 ft 296 kts 16°
2026-05-07 19:34 53.65137 -6.26766 10514 ft 318 kts 15°
2026-05-07 19:35 53.67334 -6.25656 10908 ft 337 kts 15°
2026-05-07 19:35 53.69610 -6.24490 11631 ft 345 kts 15°
2026-05-07 19:35 53.71915 -6.23290 12462 ft 349 kts 15°
2026-05-07 19:35 53.74251 -6.22057 13277 ft 354 kts 15°
2026-05-07 19:36 53.76623 -6.20796 14030 ft 360 kts 15°
2026-05-07 19:36 53.79027 -6.19511 14750 ft 365 kts 15°
2026-05-07 19:36 53.81456 -6.18207 15490 ft 369 kts 15°
2026-05-07 19:36 53.83884 -6.16901 16205 ft 373 kts 15°
2026-05-07 19:37 53.86377 -6.15558 16920 ft 378 kts 15°
2026-05-07 19:37 53.88903 -6.14196 17621 ft 383 kts 15°
2026-05-07 19:37 53.91461 -6.12814 18316 ft 388 kts 15°
2026-05-07 19:37 53.94082 -6.11396 18947 ft 392 kts 15°
2026-05-07 19:38 53.96692 -6.09983 19577 ft 395 kts 15°
2026-05-07 19:38 53.99321 -6.08558 20256 ft 398 kts 15°
2026-05-07 19:38 54.01953 -6.07128 21056 ft 396 kts 16°
2026-05-07 19:38 54.04477 -6.05451 21884 ft 395 kts 23°
2026-05-07 19:39 54.06990 -6.03428 22681 ft 394 kts 24°
2026-05-07 19:39 54.09421 -6.01409 23427 ft 394 kts 25°
2026-05-07 19:39 54.11882 -5.99353 24073 ft 393 kts 24°
2026-05-07 19:39 54.14338 -5.97306 24702 ft 393 kts 24°
2026-05-07 19:40 54.16799 -5.95265 24920 ft 393 kts 24°
2026-05-07 19:40 54.19258 -5.93233 24935 ft 393 kts 24°
2026-05-07 19:40 54.21715 -5.91208 24948 ft 392 kts 24°
2026-05-07 19:40 54.24174 -5.89182 24954 ft 393 kts 24°
2026-05-07 19:41 54.26639 -5.87149 24961 ft 394 kts 24°
2026-05-07 19:41 54.29110 -5.85109 24955 ft 395 kts 24°
2026-05-07 19:41 54.31585 -5.83063 24952 ft 395 kts 24°
2026-05-07 19:41 54.34062 -5.81012 24952 ft 395 kts 24°
2026-05-07 19:42 54.36537 -5.78960 24945 ft 395 kts 24°
2026-05-07 19:42 54.39014 -5.76904 24943 ft 395 kts 24°
2026-05-07 19:42 54.41484 -5.74851 24944 ft 394 kts 24°
2026-05-07 19:42 54.43953 -5.72795 24938 ft 394 kts 24°
2026-05-07 19:43 54.46416 -5.70742 24943 ft 393 kts 24°
2026-05-07 19:43 54.48875 -5.68690 24943 ft 393 kts 24°
2026-05-07 19:43 54.51329 -5.66639 24938 ft 392 kts 24°
2026-05-07 19:43 54.53779 -5.64589 24942 ft 390 kts 24°
2026-05-07 19:44 54.56202 -5.62558 24930 ft 384 kts 24°
2026-05-07 19:44 54.58585 -5.60524 24929 ft 381 kts 28°
2026-05-07 19:44 54.60794 -5.57999 24938 ft 382 kts 39°
2026-05-07 19:44 54.62816 -5.55016 24925 ft 384 kts 41°
2026-05-07 19:45 54.64818 -5.51936 24619 ft 385 kts 42°
2026-05-07 19:45 54.66800 -5.48863 24346 ft 382 kts 41°
2026-05-07 19:45 54.68777 -5.45809 24008 ft 380 kts 41°
2026-05-07 19:45 54.70748 -5.42784 23674 ft 378 kts 41°
2026-05-07 19:46 54.72712 -5.39782 23292 ft 376 kts 41°
2026-05-07 19:46 54.74672 -5.36794 22895 ft 374 kts 41°
2026-05-07 19:46 54.76593 -5.33866 22538 ft 372 kts 41°
2026-05-07 19:46 54.78551 -5.30877 22179 ft 369 kts 41°
2026-05-07 19:47 54.80469 -5.27947 21826 ft 366 kts 41°
2026-05-07 19:47 54.82346 -5.25076 21494 ft 364 kts 41°
2026-05-07 19:47 54.84237 -5.22179 21154 ft 361 kts 41°
2026-05-07 19:47 54.86116 -5.19298 20815 ft 359 kts 41°
2026-05-07 19:48 54.88006 -5.16480 20477 ft 357 kts 36°
2026-05-07 19:48 54.90100 -5.14205 20146 ft 354 kts 26°
2026-05-07 19:48 54.92297 -5.12307 19820 ft 352 kts 24°
2026-05-07 19:48 54.94502 -5.10460 19481 ft 351 kts 24°
2026-05-07 19:49 54.96696 -5.08615 19152 ft 350 kts 25°
2026-05-07 19:49 54.98879 -5.06757 18809 ft 349 kts 25°
2026-05-07 19:49 55.00962 -5.04607 18472 ft 348 kts 36°
2026-05-07 19:49 55.02882 -5.02056 18178 ft 347 kts 38°
2026-05-07 19:50 55.04765 -4.99451 17869 ft 345 kts 38°
2026-05-07 19:50 55.06640 -4.96838 17539 ft 344 kts 38°
2026-05-07 19:50 55.08504 -4.94230 17213 ft 343 kts 39°
2026-05-07 19:50 55.10359 -4.91628 16893 ft 341 kts 39°
2026-05-07 19:51 55.12200 -4.89038 16582 ft 339 kts 39°
2026-05-07 19:51 55.14031 -4.86461 16263 ft 337 kts 38°
2026-05-07 19:51 55.15852 -4.83894 15961 ft 335 kts 39°
2026-05-07 19:51 55.17663 -4.81339 15647 ft 334 kts 39°
2026-05-07 19:52 55.19461 -4.78797 15348 ft 332 kts 39°
2026-05-07 19:52 55.21251 -4.76264 15039 ft 330 kts 39°
2026-05-07 19:52 55.23033 -4.73737 14745 ft 328 kts 39°
2026-05-07 19:52 55.24803 -4.71223 14451 ft 327 kts 39°
2026-05-07 19:53 55.26566 -4.68717 14152 ft 325 kts 39°
2026-05-07 19:53 55.28319 -4.66220 13869 ft 324 kts 39°
2026-05-07 19:53 55.30061 -4.63734 13556 ft 322 kts 39°
2026-05-07 19:53 55.31794 -4.61257 13229 ft 321 kts 40°
2026-05-07 19:54 55.33203 -4.58284 12921 ft 316 kts 63°
2026-05-07 19:54 55.34134 -4.54830 12713 ft 310 kts 68°
2026-05-07 19:54 55.34988 -4.51394 12604 ft 305 kts 68°
2026-05-07 19:54 55.35841 -4.47989 12485 ft 306 kts 68°
2026-05-07 19:55 55.36723 -4.44549 12379 ft 311 kts 67°
2026-05-07 19:55 55.37632 -4.41080 12262 ft 314 kts 66°
2026-05-07 19:55 55.38558 -4.37609 12151 ft 312 kts 66°
2026-05-07 19:55 55.39486 -4.34168 12023 ft 311 kts 66°
2026-05-07 19:56 55.40416 -4.30743 11907 ft 310 kts 66°
2026-05-07 19:56 55.41032 -4.28478 11832 ft 309 kts 66°
2026-05-07 19:56 55.41961 -4.25072 11713 ft 308 kts 65°
2026-05-07 19:56 55.42888 -4.21677 11599 ft 307 kts 65°
2026-05-07 19:57 55.43813 -4.18291 11484 ft 307 kts 65°
2026-05-07 19:57 55.44736 -4.14907 11364 ft 306 kts 65°
2026-05-07 19:57 55.45657 -4.11530 11256 ft 306 kts 65°
2026-05-07 19:57 55.46576 -4.08153 11146 ft 305 kts 65°
2026-05-07 19:58 55.47494 -4.04777 11037 ft 305 kts 65°
2026-05-07 19:58 55.48411 -4.01402 10922 ft 305 kts 65°
2026-05-07 19:58 55.49326 -3.98027 10813 ft 305 kts 65°
2026-05-07 19:58 55.50240 -3.94651 10699 ft 305 kts 65°
2026-05-07 19:59 55.51154 -3.91274 10548 ft 306 kts 65°
2026-05-07 19:59 55.52069 -3.87883 10406 ft 306 kts 65°
2026-05-07 19:59 55.52982 -3.84495 10257 ft 306 kts 65°
2026-05-07 19:59 55.53894 -3.81106 10102 ft 305 kts 65°
2026-05-07 20:00 55.54803 -3.77725 9948 ft 304 kts 65°
2026-05-07 20:00 55.55710 -3.74349 9809 ft 304 kts 65°
2026-05-07 20:00 55.56613 -3.70980 9646 ft 303 kts 65°
2026-05-07 20:00 55.57512 -3.67619 9478 ft 302 kts 65°
2026-05-07 20:01 55.58407 -3.64271 9339 ft 301 kts 66°
2026-05-07 20:01 55.59300 -3.60924 9153 ft 300 kts 66°
2026-05-07 20:01 55.60189 -3.57587 8996 ft 300 kts 66°
2026-05-07 20:01 55.61076 -3.54254 8831 ft 299 kts 66°
2026-05-07 20:02 55.61960 -3.50926 8678 ft 299 kts 66°
2026-05-07 20:02 55.62843 -3.47595 8514 ft 299 kts 66°
2026-05-07 20:02 55.63721 -3.44283 8357 ft 295 kts 66°
2026-05-07 20:02 55.64586 -3.41011 8195 ft 292 kts 66°
2026-05-07 20:03 55.65442 -3.37769 8029 ft 290 kts 66°
2026-05-07 20:03 55.66294 -3.34541 7884 ft 289 kts 66°
2026-05-07 20:03 55.67144 -3.31313 7716 ft 288 kts 66°
2026-05-07 20:03 55.67982 -3.28124 7563 ft 283 kts 66°
2026-05-07 20:04 55.68806 -3.24991 7400 ft 277 kts 66°
2026-05-07 20:04 55.69610 -3.21926 7239 ft 273 kts 67°
2026-05-07 20:04 55.70406 -3.18889 7077 ft 271 kts 67°
2026-05-07 20:04 55.71281 -3.15930 6840 ft 273 kts 52°
2026-05-07 20:05 55.72734 -3.13813 6643 ft 272 kts 25°
2026-05-07 20:05 55.74457 -3.12488 6466 ft 269 kts 20°
2026-05-07 20:05 55.76196 -3.11287 6284 ft 268 kts 19°
2026-05-07 20:05 55.77910 -3.10117 6090 ft 267 kts 19°
2026-05-07 20:06 55.79639 -3.08939 5885 ft 266 kts 19°
2026-05-07 20:06 55.81370 -3.07767 5689 ft 265 kts 19°
2026-05-07 20:06 55.83093 -3.06601 5509 ft 264 kts 19°
2026-05-07 20:06 55.84806 -3.05446 5344 ft 263 kts 19°
2026-05-07 20:07 55.86518 -3.04296 5151 ft 263 kts 19°
2026-05-07 20:07 55.88230 -3.03144 4982 ft 263 kts 19°
2026-05-07 20:07 55.89940 -3.01990 4792 ft 263 kts 19°
2026-05-07 20:07 55.91652 -3.00840 4619 ft 263 kts 19°
2026-05-07 20:08 55.93362 -2.99686 4434 ft 263 kts 19°
2026-05-07 20:08 55.95072 -2.98533 4262 ft 263 kts 19°
2026-05-07 20:08 55.96777 -2.97378 4080 ft 261 kts 19°
2026-05-07 20:08 55.98499 -2.96586 3911 ft 250 kts 357°
2026-05-07 20:09 56.00111 -2.97221 3785 ft 229 kts 332°
2026-05-07 20:09 56.01534 -2.98358 3616 ft 219 kts 330°
2026-05-07 20:09 56.02764 -2.99373 3476 ft 210 kts 328°
2026-05-07 20:10 56.04160 -3.03030 3264 ft 176 kts 271°
2026-05-07 20:10 56.04285 -3.05214 3151 ft 176 kts 270°
2026-05-07 20:10 56.04388 -3.07377 3038 ft 172 kts 265°
2026-05-07 20:10 56.04077 -3.09356 3024 ft 165 kts 241°
2026-05-07 20:11 56.03597 -3.11232 3021 ft 167 kts 243°
2026-05-07 20:11 56.03117 -3.13097 3000 ft 168 kts 240°
2026-05-07 20:11 56.02550 -3.14951 2823 ft 171 kts 237°
2026-05-07 20:11 56.01946 -3.16774 2607 ft 169 kts 236°
2026-05-07 20:12 56.01342 -3.18562 2395 ft 167 kts 235°
2026-05-07 20:12 56.00742 -3.20339 2137 ft 167 kts 235°
2026-05-07 20:12 56.00139 -3.22125 1913 ft 168 kts 235°
2026-05-07 20:12 55.99528 -3.23910 1698 ft 168 kts 234°
2026-05-07 20:13 55.98932 -3.25648 1457 ft 159 kts 234°
2026-05-07 20:13 55.98387 -3.27253 1288 ft 141 kts 234°
2026-05-07 20:13 55.97900 -3.28689 1038 ft 133 kts 235°
2026-05-07 20:13 55.97416 -3.30092 821 ft 133 kts 235°
2026-05-07 20:14 55.96934 -3.31517 674 ft 135 kts 236°
2026-05-07 20:14 55.96453 -3.32985 533 ft 138 kts 235°
2026-05-07 20:14 55.95952 -3.34449 335 ft 138 kts 236°
2026-05-07 20:14 55.95458 -3.35905 144 ft 137 kts 236°
2026-05-07 20:15 55.95013 -3.37208 111 ft 96 kts 238°
2026-05-07 20:15 55.94778 -3.37903 115 ft 35 kts 239°
2026-05-07 20:15 55.94715 -3.38055 112 ft 11 kts 203°
2026-05-07 20:15 55.94650 -3.38012 113 ft 10 kts 149°
2026-05-07 20:16 55.94593 -3.37941 115 ft 10 kts 123°
2026-05-07 20:16 55.94614 -3.37814 113 ft 15 kts 58°
2026-05-07 20:16 55.94680 -3.37622 114 ft 21 kts 58°
2026-05-07 20:16 55.94755 -3.37403 115 ft 21 kts 58°
2026-05-07 20:17 55.94828 -3.37184 115 ft 20 kts 59°
2026-05-07 20:17 55.94878 -3.37036 113 ft 8 kts 59°
2026-05-07 20:17 55.94905 -3.36958 115 ft 4 kts 59°
2026-05-07 20:17 55.94906 -3.36955 115 ft 0 kts 59°
2026-05-07 20:19 55.94908 -3.36948 114 ft 2 kts 59°
2026-05-07 20:19 55.94926 -3.36889 113 ft 7 kts 72°
2026-05-07 20:19 55.94904 -3.36814 115 ft 7 kts 146°
2026-05-07 20:19 55.94848 -3.36780 115 ft 9 kts 177°
2026-05-07 20:20 55.94783 -3.36775 115 ft 9 kts 169°
2026-05-07 20:20 55.94726 -3.36737 115 ft 9 kts 178°
2026-05-07 20:20 55.94670 -3.36735 115 ft 6 kts 179°
2026-05-07 20:20 55.94638 -3.36734 115 ft 4 kts 179°
2026-05-07 20:21 55.94613 -3.36715 112 ft 4 kts 118°
2026-05-07 20:21 55.94611 -3.36665 115 ft 2 kts 89°
2026-05-07 20:21 55.94612 -3.36641 115 ft 1 kts 89°
2026-05-07 20:21 55.94612 -3.36629 115 ft 1 kts 89°
2026-05-07 20:22 55.94612 -3.36623 115 ft 0 kts 89°